Time;durP1;ratioP1;P1;durP2;ratioP2;P2;SDS_P1;SDS_P2;PMS_P1;PMS_P2;Temp;Humidity;BMP_temperature;BMP_pressure;BME280_temperature;BME280_humidity;BME280_pressure;Samples;Min_cycle;Max_cycle;Signal;HPM_P1;HPM_P2
2021/07/24 00:01:08;;;;;;;1999.90;999.90;;;20.30;99.90;;;;;;4864521;29;20459;-86
2021/07/24 00:03:35;;;;;;;1999.90;999.90;;;20.30;99.90;;;;;;4863543;29;20409;-85
2021/07/24 00:06:00;;;;;;;1999.90;999.90;;;20.30;99.90;;;;;;4864666;29;20974;-85
2021/07/24 00:08:26;;;;;;;1999.90;999.90;;;20.40;99.90;;;;;;4863648;29;20412;-85
2021/07/24 00:10:52;;;;;;;1999.90;999.90;;;20.30;99.90;;;;;;4864601;29;20643;-85
2021/07/24 00:13:18;;;;;;;1999.90;999.90;;;20.30;99.90;;;;;;4863015;29;20540;-85
2021/07/24 00:15:44;;;;;;;1999.90;999.90;;;20.10;99.90;;;;;;4864494;29;20928;-85
2021/07/24 00:18:09;;;;;;;1999.90;999.90;;;20.00;99.90;;;;;;4863944;29;20411;-85
2021/07/24 00:20:35;;;;;;;1999.90;999.90;;;20.00;99.90;;;;;;4863943;29;20281;-86
2021/07/24 00:23:03;;;;;;;1999.90;999.90;;;19.90;99.90;;;;;;4863653;29;20189;-85
2021/07/24 00:25:29;;;;;;;1999.90;999.90;;;19.70;99.90;;;;;;4864567;29;20167;-85
2021/07/24 00:27:54;;;;;;;1999.90;999.90;;;19.70;99.90;;;;;;4862898;29;20499;-85
2021/07/24 00:30:20;;;;;;;1999.90;999.90;;;19.70;99.90;;;;;;4863855;29;20821;-85
2021/07/24 00:32:46;;;;;;;1999.90;999.90;;;19.60;99.90;;;;;;4862553;29;20185;-85
2021/07/24 00:35:12;;;;;;;1999.90;999.90;;;19.60;99.90;;;;;;4864294;29;20179;-85
2021/07/24 00:37:37;;;;;;;1999.90;999.90;;;19.60;99.90;;;;;;4864567;29;20266;-85
2021/07/24 00:40:03;;;;;;;1999.90;999.90;;;19.60;99.90;;;;;;4864520;29;20427;-85
2021/07/24 00:42:35;;;;;;;1999.90;999.90;;;19.60;99.90;;;;;;4864969;29;20199;-85
2021/07/24 00:45:03;;;;;;;1999.90;999.90;;;19.60;99.90;;;;;;4865060;29;20426;-85
2021/07/24 00:47:38;;;;;;;1999.90;999.90;;;19.70;99.90;;;;;;4864852;29;20502;-85
2021/07/24 00:50:04;;;;;;;1999.90;999.90;;;19.70;99.90;;;;;;4864063;29;20550;-85
2021/07/24 00:52:30;;;;;;;1999.90;999.90;;;19.60;99.90;;;;;;4865323;29;20439;-85
2021/07/24 00:54:57;;;;;;;1999.90;999.90;;;19.50;99.90;;;;;;4865577;29;20445;-85
2021/07/24 00:57:23;;;;;;;1999.90;999.90;;;19.40;99.90;;;;;;4864841;29;20445;-85
2021/07/24 00:59:49;;;;;;;1999.90;999.90;;;19.40;99.90;;;;;;4861178;29;20425;-85
2021/07/24 01:02:14;;;;;;;1999.90;999.90;;;19.40;99.90;;;;;;4861502;29;20621;-85
2021/07/24 01:04:40;;;;;;;1999.90;999.90;;;19.30;99.90;;;;;;4861230;29;20170;-85
2021/07/24 01:07:08;;;;;;;1999.90;999.90;;;19.30;99.90;;;;;;4861686;29;20190;-85
2021/07/24 01:09:34;;;;;;;1999.90;999.90;;;19.40;99.90;;;;;;4863782;29;20410;-85
2021/07/24 01:12:03;;;;;;;1999.90;999.90;;;19.30;99.90;;;;;;4864019;29;20420;-85
2021/07/24 01:14:33;;;;;;;1999.90;999.90;;;19.20;99.90;;;;;;4863508;29;20168;-85
2021/07/24 01:17:00;;;;;;;1999.90;999.90;;;19.20;99.90;;;;;;4862249;29;20508;-85
2021/07/24 01:19:26;;;;;;;1999.90;999.90;;;19.10;99.90;;;;;;4863317;29;20932;-85
2021/07/24 01:21:52;;;;;;;1999.90;999.90;;;19.00;99.90;;;;;;4863227;29;20540;-85
2021/07/24 01:24:18;;;;;;;1999.90;999.90;;;19.00;99.90;;;;;;4863044;29;20176;-85
2021/07/24 01:26:44;;;;;;;1999.90;999.90;;;19.00;99.90;;;;;;4862639;29;20863;-85
2021/07/24 01:29:14;;;;;;;1999.90;999.90;;;18.90;99.90;;;;;;4862126;29;20260;-85
2021/07/24 01:31:41;;;;;;;1999.90;999.90;;;18.90;99.90;;;;;;4863329;29;20432;-85
2021/07/24 01:34:06;;;;;;;1999.90;999.90;;;18.80;99.90;;;;;;4863954;29;20484;-85
2021/07/24 01:36:32;;;;;;;1999.90;999.90;;;18.80;99.90;;;;;;4863484;29;20856;-85
2021/07/24 01:38:57;;;;;;;1999.90;999.90;;;18.80;99.90;;;;;;4863915;29;20645;-85
2021/07/24 01:41:23;;;;;;;1999.90;999.90;;;18.80;99.90;;;;;;4864618;29;20188;-85
2021/07/24 01:43:49;;;;;;;1999.90;999.90;;;18.80;99.90;;;;;;4864317;29;20174;-85
2021/07/24 01:46:14;;;;;;;1999.90;999.90;;;18.60;99.90;;;;;;4862552;29;20191;-85
2021/07/24 01:54:01;;;;;;;1999.90;999.90;;;18.70;99.90;;;;;;4865165;29;20237;-85
2021/07/24 01:56:30;;;;;;;1999.90;999.90;;;18.70;99.90;;;;;;4864313;29;20435;-85
2021/07/24 01:58:56;;;;;;;1999.90;999.90;;;18.70;99.90;;;;;;4864513;29;20495;-85
2021/07/24 02:01:26;;;;;;;1999.90;999.90;;;18.60;99.90;;;;;;4862662;29;20533;-85
2021/07/24 02:03:55;;;;;;;1999.90;999.90;;;18.40;99.90;;;;;;4863854;29;20179;-85
2021/07/24 02:06:21;;;;;;;1999.90;999.90;;;18.50;99.90;;;;;;4867644;29;20424;-85
2021/07/24 02:08:51;;;;;;;1999.90;999.90;;;18.50;99.90;;;;;;4867983;29;20459;-85
2021/07/24 02:11:18;;;;;;;1999.90;999.90;;;18.30;99.90;;;;;;4868122;29;20412;-85
2021/07/24 02:13:46;;;;;;;1999.90;999.90;;;18.30;99.90;;;;;;4867532;29;20912;-85
2021/07/24 02:16:13;;;;;;;1999.90;999.90;;;18.30;99.90;;;;;;4865088;29;20444;-85
2021/07/24 02:18:39;;;;;;;1999.90;999.90;;;18.30;99.90;;;;;;4866162;29;20511;-85
2021/07/24 02:21:05;;;;;;;1999.90;999.90;;;18.30;99.90;;;;;;4866850;29;20532;-85
2021/07/24 02:23:31;;;;;;;1999.90;999.90;;;18.40;99.90;;;;;;4866351;29;20494;-85
2021/07/24 02:25:57;;;;;;;1999.90;999.90;;;18.30;99.90;;;;;;4868397;29;20188;-85
2021/07/24 02:28:22;;;;;;;1999.90;999.90;;;18.30;99.90;;;;;;4867031;29;20236;-85
2021/07/24 02:30:48;;;;;;;1999.90;999.90;;;18.30;99.90;;;;;;4867872;29;20172;-85
2021/07/24 02:33:14;;;;;;;1999.90;999.90;;;18.30;99.90;;;;;;4867518;29;20232;-85
2021/07/24 02:35:40;;;;;;;1999.90;999.90;;;18.40;99.90;;;;;;4867757;29;20261;-85
2021/07/24 02:38:06;;;;;;;1999.90;999.90;;;18.20;99.90;;;;;;4867630;29;20223;-85
2021/07/24 02:40:33;;;;;;;1999.90;999.90;;;18.20;99.90;;;;;;4867292;29;20638;-85
2021/07/24 02:42:59;;;;;;;1999.90;999.90;;;18.10;99.90;;;;;;4867350;29;20463;-85
2021/07/24 02:45:25;;;;;;;1999.90;999.90;;;17.90;99.90;;;;;;4866705;29;20414;-85
2021/07/24 02:47:50;;;;;;;1999.90;999.90;;;17.90;99.90;;;;;;4866477;29;20427;-85
2021/07/24 02:50:17;;;;;;;1999.90;999.90;;;17.90;99.90;;;;;;4868245;29;20172;-85
2021/07/24 02:52:42;;;;;;;1999.90;999.90;;;17.90;99.90;;;;;;4868357;29;20171;-85
2021/07/24 02:55:09;;;;;;;1999.90;999.90;;;17.90;99.90;;;;;;4867360;29;20413;-85
2021/07/24 02:57:35;;;;;;;1999.90;999.90;;;17.90;99.90;;;;;;4868125;29;20223;-84
2021/07/24 03:00:02;;;;;;;1999.90;999.90;;;17.90;99.90;;;;;;4868294;29;20503;-85
2021/07/24 03:02:28;;;;;;;1999.90;999.90;;;17.90;99.90;;;;;;4867684;29;20198;-85
2021/07/24 03:04:53;;;;;;;1999.90;999.90;;;17.90;99.90;;;;;;4867894;29;20404;-85
2021/07/24 03:07:19;;;;;;;1999.90;999.90;;;17.80;99.90;;;;;;4867553;29;20271;-85
2021/07/24 03:09:44;;;;;;;1999.90;999.90;;;17.70;99.90;;;;;;4866143;29;20176;-85
2021/07/24 03:12:10;;;;;;;1999.90;999.90;;;17.70;99.90;;;;;;4867916;29;20581;-85
2021/07/24 03:14:36;;;;;;;1999.90;999.90;;;17.70;99.90;;;;;;4867321;29;20171;-85
2021/07/24 03:17:02;;;;;;;1999.90;999.90;;;17.70;99.90;;;;;;4867922;29;20215;-85
2021/07/24 03:19:27;;;;;;;1999.90;999.90;;;17.70;99.90;;;;;;4868853;29;20171;-85
2021/07/24 03:25:01;;;;;;;1999.90;999.90;;;17.90;99.90;;;;;;1068917;27;20511;-85
2021/07/24 03:35:23;;;;;;;;;;;;;;;;;;;;;
2021/07/24 03:42:34;;;;;;;1999.90;999.90;;;17.70;99.90;;;;;;4880387;29;21220;-85
2021/07/24 03:45:47;;;;;;;1999.90;999.90;;;17.70;99.90;;;;;;4874727;29;20419;-85
2021/07/24 03:56:02;;;;;;;;;;;;;;;;;;;;;
2021/07/24 03:59:23;;;;;;;1999.90;999.90;;;18.00;99.90;;;;;;4814719;29;20901;-85
2021/07/24 04:02:48;;;;;;;1999.90;999.90;;;18.10;99.90;;;;;;4788209;29;20470;-85
2021/07/24 04:13:42;;;;;;;;;;;;;;;;;;;;;
2021/07/24 04:17:04;;;;;;;1999.90;999.90;;;18.30;99.90;;;;;;4724527;30;20457;-85
2021/07/24 05:02:19;;;;;;;;;;;;;;;;;;;;;
2021/07/24 05:08:22;;;;;;;1999.90;999.90;;;19.10;99.90;;;;;;5127282;23;20582;-85
2021/07/24 05:11:11;;;;;;;1999.90;999.90;;;19.20;99.90;;;;;;4880959;29;20920;-86
2021/07/24 05:25:39;;;;;;;;;;;;;;;;;;;;;
2021/07/24 05:32:01;;;;;;;;;;;;;;;;;;;;;
2021/07/24 05:53:58;;;;;;;1999.90;999.90;;;20.30;99.90;;;;;;4883231;29;20422;-85
2021/07/24 06:05:00;;;;;;;;;;;;;;;;;;;;;
2021/07/24 06:26:03;;;;;;;;;;;;;;;;;;;;;
2021/07/24 06:33:02;;;;;;;;;;;;;;;;;;;;;
2021/07/24 06:48:36;;;;;;;1999.90;999.90;;;21.00;99.90;;;;;;5191220;23;20482;-86
2021/07/24 06:51:06;;;;;;;1999.90;999.90;;;21.10;99.90;;;;;;4883786;29;20522;-85
2021/07/24 06:53:34;;;;;;;1999.90;999.90;;;21.20;99.90;;;;;;4885819;29;20403;-85
2021/07/24 06:55:59;;;;;;;1999.90;999.90;;;21.20;99.90;;;;;;4884128;29;20779;-86
2021/07/24 06:58:27;;;;;;;1999.90;999.90;;;21.30;99.90;;;;;;4899955;29;20510;-86
2021/07/24 07:00:56;;;;;;;1999.90;999.90;;;21.30;99.90;;;;;;4884837;29;20472;-86
2021/07/24 07:03:22;;;;;;;1999.90;999.90;;;21.40;99.90;;;;;;4885155;29;20966;-85
2021/07/24 07:05:49;;;;;;;1999.90;999.90;;;21.50;99.90;;;;;;4884443;29;20502;-86
2021/07/24 07:08:15;;;;;;;1999.90;999.90;;;21.60;99.90;;;;;;4883759;29;20194;-84
2021/07/24 07:24:22;;;;;;;1999.90;999.90;;;21.70;99.90;;;;;;4860188;29;20439;-86
2021/07/24 07:33:15;;;;;;;1999.90;999.90;;;21.70;99.90;;;;;;4883586;29;20387;-85
2021/07/24 07:35:54;;;;;;;;;;;;;;;;;;;;;
2021/07/24 07:38:42;;;;;;;1999.90;999.90;;;21.70;99.90;;;;;;4882114;29;20411;-85
2021/07/24 07:41:44;;;;;;;1999.90;999.90;;;21.70;99.90;;;;;;4882250;29;20446;-86
2021/07/24 07:44:44;;;;;;;;;;;;;;;;;;;;;
2021/07/24 08:58:20;;;;;;;1999.90;999.90;;;21.80;99.90;;;;;;3608783;23;20497;-86
2021/07/24 09:01:04;;;;;;;1999.90;999.90;;;21.80;99.90;;;;;;4896120;29;20423;-86
2021/07/24 09:07:48;;;;;;;1999.90;999.90;;;21.70;99.90;;;;;;4869759;23;20483;-86
2021/07/24 09:17:31;;;;;;;1999.90;999.90;;;21.80;99.90;;;;;;4901664;29;20467;-86
2021/07/24 09:20:08;;;;;;;;;;;;;;;;;;;;;
2021/07/24 09:22:37;;;;;;;1999.90;999.90;;;21.90;99.90;;;;;;4899974;23;20500;-84
2021/07/24 09:25:12;;;;;;;1999.90;999.90;;;21.80;99.90;;;;;;4886744;29;20430;-86
2021/07/24 09:27:46;;;;;;;1999.90;999.90;;;22.00;99.90;;;;;;4885766;29;20422;-85
2021/07/24 09:30:24;;;;;;;1999.90;999.90;;;22.10;99.90;;;;;;4886804;29;20404;-85
2021/07/24 09:33:10;;;;;;;1999.90;999.90;;;22.00;99.90;;;;;;4902121;29;20419;-85
2021/07/24 09:35:37;;;;;;;1999.90;999.90;;;22.10;99.90;;;;;;4888284;29;20422;-85
2021/07/24 09:38:13;;;;;;;1999.90;999.90;;;22.10;99.90;;;;;;4889796;29;20407;-84
2021/07/24 09:40:46;;;;;;;1999.90;999.90;;;22.30;99.90;;;;;;4885122;29;20411;-85
2021/07/24 09:43:32;;;;;;;1999.90;999.90;;;22.30;99.90;;;;;;4884314;29;20461;-85
2021/07/24 09:46:12;;;;;;;1999.90;999.90;;;22.30;99.90;;;;;;4885947;29;20827;-86
2021/07/24 09:48:39;;;;;;;1999.90;999.90;;;22.40;99.90;;;;;;4886634;29;20522;-84
2021/07/24 09:51:04;;;;;;;1999.90;999.90;;;22.50;99.90;;;;;;4888153;29;20418;-84
2021/07/24 09:53:40;;;;;;;1999.90;999.90;;;22.40;99.90;;;;;;4886533;29;20779;-85
2021/07/24 09:56:11;;;;;;;1999.90;999.90;;;22.50;99.90;;;;;;4887861;29;20666;-85
2021/07/24 09:58:38;;;;;;;1999.90;999.90;;;22.60;99.90;;;;;;4886750;29;20387;-85
2021/07/24 10:01:08;;;;;;;1999.90;999.90;;;22.60;99.90;;;;;;4900901;29;20419;-85
2021/07/24 10:03:36;;;;;;;1999.90;999.90;;;22.70;99.90;;;;;;4885731;29;20907;-85
2021/07/24 10:06:15;;;;;;;1999.90;999.90;;;22.60;99.90;;;;;;4887232;29;20931;-85
2021/07/24 10:08:48;;;;;;;1999.90;999.90;;;22.70;99.90;;;;;;4886081;29;20403;-85
2021/07/24 10:11:14;;;;;;;1999.90;999.90;;;22.80;99.90;;;;;;4886367;29;20410;-85
2021/07/24 10:13:42;;;;;;;1999.90;999.90;;;22.80;99.90;;;;;;4886162;29;20846;-84
2021/07/24 10:16:08;;;;;;;1999.90;999.90;;;22.80;99.90;;;;;;4884975;29;20194;-84
2021/07/24 10:18:34;;;;;;;1999.90;999.90;;;22.80;99.90;;;;;;4886129;29;20403;-85
2021/07/24 10:21:01;;;;;;;1999.90;999.90;;;22.80;99.90;;;;;;4885919;29;20167;-85
2021/07/24 10:23:28;;;;;;;1999.90;999.90;;;22.70;99.90;;;;;;4885325;29;20423;-85
2021/07/24 10:26:11;;;;;;;1999.90;999.90;;;22.70;99.90;;;;;;4880893;29;20807;-85
2021/07/24 10:29:00;;;;;;;1999.90;999.90;;;22.70;99.90;;;;;;4883560;29;20396;-84
2021/07/24 10:31:44;;;;;;;1999.90;999.90;;;22.70;99.90;;;;;;4884461;29;20402;-85
2021/07/24 10:34:12;;;;;;;1999.90;999.90;;;22.80;99.90;;;;;;4883991;29;20443;-84
2021/07/24 10:36:40;;;;;;;1999.90;999.90;;;22.70;99.90;;;;;;4897868;29;20431;-84
2021/07/24 10:39:18;;;;;;;1999.90;999.90;;;22.60;99.90;;;;;;4897748;29;20424;-84
2021/07/24 10:41:44;;;;;;;1999.90;999.90;;;22.40;99.90;;;;;;4901015;29;20939;-84
2021/07/24 10:44:35;;;;;;;1999.90;999.90;;;22.40;99.90;;;;;;4899017;29;20971;-84
2021/07/24 10:47:01;;;;;;;1999.90;999.90;;;22.40;99.90;;;;;;4883951;29;20439;-84
2021/07/24 10:49:33;;;;;;;1999.90;999.90;;;22.40;99.90;;;;;;4884463;29;20430;-84
2021/07/24 10:52:03;;;;;;;1999.90;999.90;;;22.30;99.90;;;;;;4884680;29;20249;-84
2021/07/24 10:54:30;;;;;;;1999.90;999.90;;;22.30;99.90;;;;;;4884492;29;20439;-84
2021/07/24 10:56:56;;;;;;;1999.90;999.90;;;22.40;99.90;;;;;;4884068;29;20435;-84
2021/07/24 10:59:23;;;;;;;1999.90;999.90;;;22.40;99.90;;;;;;4883356;29;20474;-85
2021/07/24 11:01:51;;;;;;;1999.90;999.90;;;22.40;99.90;;;;;;4884056;29;20451;-84
2021/07/24 11:04:38;;;;;;;1999.90;999.90;;;22.50;99.90;;;;;;4883666;29;21022;-85
2021/07/24 11:07:16;;;;;;;1999.90;999.90;;;22.50;99.90;;;;;;4898204;29;20958;-85
2021/07/24 11:09:46;;;;;;;1999.90;999.90;;;22.40;99.90;;;;;;4899061;29;20419;-85
2021/07/24 11:12:13;;;;;;;1999.90;999.90;;;22.30;99.90;;;;;;4881127;29;20423;-85
2021/07/24 11:14:42;;;;;;;1999.90;999.90;;;22.20;99.90;;;;;;4881252;29;20415;-85
2021/07/24 11:17:08;;;;;;;1999.90;999.90;;;22.20;99.90;;;;;;4883163;29;20787;-85
2021/07/24 11:20:05;;;;;;;1999.90;999.90;;;22.10;99.90;;;;;;4883566;29;20411;-85
2021/07/24 11:22:32;;;;;;;1999.90;999.90;;;22.00;99.90;;;;;;4884184;29;20470;-84
2021/07/24 11:24:58;;;;;;;1999.90;999.90;;;22.00;99.90;;;;;;4887598;29;20479;-85
2021/07/24 11:27:26;;;;;;;1999.90;999.90;;;21.90;99.90;;;;;;4889709;29;20984;-85
2021/07/24 11:30:10;;;;;;;1999.90;999.90;;;21.80;99.90;;;;;;4901761;29;20202;-85
2021/07/24 11:32:38;;;;;;;1999.90;999.90;;;21.60;99.90;;;;;;4882430;29;20412;-85
2021/07/24 11:35:07;;;;;;;1999.90;999.90;;;21.70;99.90;;;;;;4881207;29;20411;-86
2021/07/24 11:37:39;;;;;;;1999.90;999.90;;;21.70;99.90;;;;;;4894058;29;20576;-86
2021/07/24 11:40:07;;;;;;;1999.90;999.90;;;21.80;99.90;;;;;;4895757;29;20986;-86
2021/07/24 11:42:34;;;;;;;1999.90;999.90;;;21.80;99.90;;;;;;4880654;29;20447;-87
2021/07/24 11:44:59;;;;;;;1999.90;999.90;;;21.70;99.90;;;;;;4881261;29;20437;-87
2021/07/24 11:47:25;;;;;;;1999.90;999.90;;;21.60;99.90;;;;;;4881350;29;20791;-87
2021/07/24 11:49:51;;;;;;;1999.90;999.90;;;21.50;99.90;;;;;;4880753;29;20758;-88
2021/07/24 11:52:23;;;;;;;1999.90;999.90;;;21.30;99.90;;;;;;4895425;29;20177;-88
2021/07/24 11:54:52;;;;;;;1999.90;999.90;;;21.30;99.90;;;;;;4881551;29;20592;-88
2021/07/24 11:57:28;;;;;;;1999.90;999.90;;;21.50;99.90;;;;;;4880580;29;20447;-87
2021/07/24 11:59:53;;;;;;;1999.90;999.90;;;21.60;99.90;;;;;;4880473;29;20419;-87
2021/07/24 12:02:20;;;;;;;1999.90;999.90;;;21.60;99.90;;;;;;4880844;29;20537;-86
2021/07/24 12:04:49;;;;;;;1999.90;999.90;;;21.60;99.90;;;;;;4894848;29;20587;-86
2021/07/24 12:07:17;;;;;;;1999.90;999.90;;;21.60;99.90;;;;;;4879007;29;20530;-86
2021/07/24 12:09:46;;;;;;;1999.90;999.90;;;21.60;99.90;;;;;;4880346;29;20978;-86
2021/07/24 12:12:12;;;;;;;1999.90;999.90;;;21.60;99.90;;;;;;4894527;29;20494;-86
2021/07/24 12:14:38;;;;;;;1999.90;999.90;;;21.60;99.90;;;;;;4894595;29;20423;-86
2021/07/24 12:17:11;;;;;;;1999.90;999.90;;;21.60;99.90;;;;;;4879355;29;20202;-86
2021/07/24 12:19:42;;;;;;;1999.90;999.90;;;21.60;99.90;;;;;;4878871;29;20186;-86
2021/07/24 12:22:16;;;;;;;1999.90;999.90;;;21.60;99.90;;;;;;4879732;29;20535;-86
2021/07/24 12:24:47;;;;;;;1999.90;999.90;;;21.60;99.90;;;;;;4879453;29;20836;-86
2021/07/24 12:27:17;;;;;;;1999.90;999.90;;;21.60;99.90;;;;;;4880212;29;20462;-86
2021/07/24 12:29:55;;;;;;;1999.90;999.90;;;21.60;99.90;;;;;;4880000;29;20396;-86
2021/07/24 12:32:22;;;;;;;1999.90;999.90;;;21.60;99.90;;;;;;4894288;29;20403;-86
2021/07/24 12:35:12;;;;;;;1999.90;999.90;;;21.60;99.90;;;;;;4878688;29;20415;-86
2021/07/24 12:37:41;;;;;;;1999.90;999.90;;;21.50;99.90;;;;;;4879791;29;20422;-86
2021/07/24 12:40:37;;;;;;;1999.90;999.90;;;21.60;99.90;;;;;;4880126;29;20910;-86
2021/07/24 12:43:49;;;;;;;1999.90;999.90;;;21.50;99.90;;;;;;4878576;29;20466;-86
2021/07/24 12:46:28;;;;;;;1999.90;999.90;;;21.60;99.90;;;;;;4877793;29;20455;-86
2021/07/24 12:49:06;;;;;;;1999.90;999.90;;;21.60;99.90;;;;;;4878836;29;20403;-85
2021/07/24 12:52:12;;;;;;;1999.90;999.90;;;21.70;99.90;;;;;;4878430;29;20899;-85
2021/07/24 12:58:42;;;;;;;1999.90;999.90;;;21.70;99.90;;;;;;4879180;29;20399;-86
2021/07/24 13:01:15;;;;;;;1999.90;999.90;;;21.70;99.90;;;;;;4879439;29;20415;-86
2021/07/24 13:04:29;;;;;;;1999.90;999.90;;;21.70;99.90;;;;;;4879343;29;20927;-86
2021/07/24 13:07:05;;;;;;;;;;;;;;;;;;;;;
2021/07/24 13:13:25;;;;;;;1999.90;999.90;;;21.50;99.90;;;;;;4914909;29;20518;-86
2021/07/24 13:15:50;;;;;;;1999.90;999.90;;;21.50;99.90;;;;;;4890745;29;20474;-88
2021/07/24 13:18:22;;;;;;;1999.90;999.90;;;21.50;99.90;;;;;;4879679;29;20847;-88
2021/07/24 13:21:27;;;;;;;1999.90;999.90;;;21.50;99.90;;;;;;4878535;29;20215;-86
2021/07/24 13:30:43;;;;;;;1999.90;999.90;;;21.50;99.90;;;;;;4879983;29;20398;-85
2021/07/24 13:33:40;;;;;;;1999.90;999.90;;;21.50;99.90;;;;;;4879298;29;20395;-85
2021/07/24 13:39:53;;;;;;;1999.90;999.90;;;21.70;99.90;;;;;;4865546;29;20414;-85
2021/07/24 13:42:30;;;;;;;1999.90;999.90;;;21.80;99.90;;;;;;4879413;29;20836;-85
2021/07/24 13:45:30;;;;;;;1999.90;999.90;;;22.00;99.90;;;;;;4879067;29;20801;-85
2021/07/24 13:48:03;;;;;;;1999.90;999.90;;;22.10;99.90;;;;;;4874898;29;20439;-87
2021/07/24 13:50:58;;;;;;;1999.90;999.90;;;22.30;99.90;;;;;;4893469;29;20506;-86
2021/07/24 13:53:47;;;;;;;;;;;;;;;;;;;;;
2021/07/24 13:59:31;;;;;;;1999.90;999.90;;;22.50;99.90;;;;;;4880149;29;20383;-87
2021/07/24 14:02:11;;;;;;;1999.90;999.90;;;22.60;99.90;;;;;;4885776;29;20450;-87
2021/07/24 14:05:03;;;;;;;1999.90;999.90;;;22.50;99.90;;;;;;4881536;29;20419;-87
2021/07/24 14:10:29;;;;;;;1999.90;999.90;;;22.70;99.90;;;;;;4881353;29;20788;-87
2021/07/24 14:13:12;;;;;;;1999.90;999.90;;;22.80;99.90;;;;;;4883127;29;20395;-87
2021/07/24 14:16:41;;;;;;;1999.90;999.90;;;22.80;99.90;;;;;;4897138;29;20438;-89
2021/07/24 14:19:28;;;;;;;1999.90;999.90;;;22.70;99.90;;;;;;4881319;29;20415;-88
2021/07/24 14:22:01;;;;;;;1999.90;999.90;;;22.70;99.90;;;;;;4897998;29;20459;-90
2021/07/24 14:24:39;;;;;;;1999.90;999.90;;;22.90;99.90;;;;;;4898903;29;20427;-90
2021/07/24 14:27:05;;;;;;;1999.90;999.90;;;23.10;99.90;;;;;;4883741;29;20534;-89
2021/07/24 14:29:34;;;;;;;1999.90;999.90;;;23.20;99.90;;;;;;4897087;29;20439;-88
2021/07/24 14:31:59;;;;;;;1999.90;999.90;;;23.20;99.90;;;;;;4882614;29;20407;-89
2021/07/24 14:34:25;;;;;;;1999.90;999.90;;;23.30;99.90;;;;;;4896782;29;21021;-88
2021/07/24 14:37:04;;;;;;;1999.90;999.90;;;23.30;99.90;;;;;;4882650;29;20693;-90
2021/07/24 14:39:33;;;;;;;1999.90;999.90;;;23.70;99.90;;;;;;4884351;29;20162;-91
2021/07/24 14:42:13;;;;;;;1999.90;999.90;;;24.00;99.90;;;;;;4882079;29;20486;-90
2021/07/24 14:44:39;;;;;;;1999.90;999.90;;;23.80;99.90;;;;;;4897119;29;20502;-90
2021/07/24 14:47:05;;;;;;;1999.90;999.90;;;24.10;99.90;;;;;;4896998;29;20526;-89
2021/07/24 14:49:32;;;;;;;1999.90;999.90;;;24.30;99.90;;;;;;4880888;29;20717;-89
2021/07/24 14:51:59;;;;;;;1999.90;999.90;;;24.40;99.90;;;;;;4881299;29;20176;-89
2021/07/24 14:54:27;;;;;;;1999.90;999.90;;;24.20;99.90;;;;;;4896910;29;20421;-82
2021/07/24 14:57:32;;;;;;;1999.90;999.90;;;24.20;99.90;;;;;;4884570;29;20444;-82
2021/07/24 15:01:10;;;;;;;1999.90;999.90;;;23.90;99.90;;;;;;4881776;29;20419;-82
2021/07/24 15:03:35;;;;;;;1999.90;999.90;;;23.70;99.90;;;;;;4880602;29;20550;-82
2021/07/24 15:07:05;;;;;;;1999.90;999.90;;;23.40;99.90;;;;;;4884849;29;20454;-82
2021/07/24 15:10:08;;;;;;;1999.90;999.90;;;23.20;99.90;;;;;;4871816;29;20471;-82
2021/07/24 15:12:49;;;;;;;1999.90;999.90;;;22.90;99.90;;;;;;4883372;29;20419;-82
2021/07/24 15:15:30;;;;;;;1999.90;999.90;;;22.60;99.90;;;;;;4897661;29;20404;-82
2021/07/24 15:17:56;;;;;;;1999.90;999.90;;;22.60;99.90;;;;;;4882955;29;20415;-82
2021/07/24 15:20:21;;;;;;;1999.90;999.90;;;22.60;99.90;;;;;;4883758;29;20812;-82
2021/07/24 15:23:29;;;;;;;1999.90;999.90;;;22.40;99.90;;;;;;4956818;23;20231;-82
2021/07/24 15:26:14;;;;;;;;;;;;;;;;;;;;;
2021/07/24 15:29:04;;;;;;;1999.90;999.90;;;22.30;99.90;;;;;;4884518;29;20462;-82
2021/07/24 15:31:53;;;;;;;;;;;;;;;;;;;;;
2021/07/24 15:34:29;;;;;;;1999.90;999.90;;;22.10;99.90;;;;;;4883896;29;20804;-82
2021/07/24 15:37:44;;;;;;;1999.90;999.90;;;22.00;99.90;;;;;;4883260;29;20446;-82
2021/07/24 15:43:49;;;;;;;;;;;;;;;;;;;;;
2021/07/24 15:46:34;;;;;;;1999.90;999.90;;;22.00;99.90;;;;;;4882981;29;20518;-82
2021/07/24 15:49:24;;;;;;;1999.90;999.90;;;22.00;99.90;;;;;;4883484;29;20466;-82
2021/07/24 15:52:44;;;;;;;;;;;;;;;;;;;;;
2021/07/24 15:55:28;;;;;;;1999.90;999.90;;;21.90;99.90;;;;;;4883402;29;20915;-82
2021/07/24 15:58:41;;;;;;;1999.90;999.90;;;21.90;99.90;;;;;;4883564;29;20399;-82
2021/07/24 16:01:48;;;;;;;1999.90;999.90;;;22.00;99.90;;;;;;4862210;29;20420;-82
2021/07/24 16:04:28;;;;;;;1999.90;999.90;;;21.90;99.90;;;;;;4862216;29;20453;-82
2021/07/24 16:07:11;;;;;;;1999.90;999.90;;;21.90;99.90;;;;;;4862515;29;20655;-82
2021/07/24 16:09:37;;;;;;;1999.90;999.90;;;21.80;99.90;;;;;;4862478;29;20412;-82
2021/07/24 16:12:44;;;;;;;1999.90;999.90;;;21.60;99.90;;;;;;4870254;29;20419;-82
2021/07/24 16:15:13;;;;;;;1999.90;999.90;;;21.40;99.90;;;;;;4880962;29;20170;-83
2021/07/24 16:17:57;;;;;;;;;;;;;;;;;;;;;
2021/07/24 16:20:29;;;;;;;1999.90;999.90;;;21.50;99.90;;;;;;4882801;29;20412;-83
2021/07/24 16:23:23;;;;;;;1999.90;999.90;;;21.70;99.90;;;;;;4896779;29;20910;-83
2021/07/24 16:26:14;;;;;;;1999.90;999.90;;;21.70;99.90;;;;;;4882708;29;20462;-83
2021/07/24 16:28:43;;;;;;;1999.90;999.90;;;21.80;99.90;;;;;;4882520;29;20831;-83
2021/07/24 16:31:19;;;;;;;1999.90;999.90;;;21.80;99.90;;;;;;4882812;29;20491;-83
2021/07/24 16:34:11;;;;;;;1999.90;999.90;;;21.90;99.90;;;;;;4882729;29;20391;-83
2021/07/24 16:36:52;;;;;;;1999.90;999.90;;;21.90;99.90;;;;;;4882729;29;20443;-83
2021/07/24 16:39:40;;;;;;;1999.90;999.90;;;21.90;99.90;;;;;;4883385;29;20476;-83
2021/07/24 16:42:06;;;;;;;1999.90;999.90;;;21.90;99.90;;;;;;4881480;29;20459;-83
2021/07/24 16:44:35;;;;;;;1999.90;999.90;;;21.90;99.90;;;;;;4880721;29;20503;-83
2021/07/24 16:47:11;;;;;;;1999.90;999.90;;;21.90;99.90;;;;;;4881018;29;20430;-83
2021/07/24 16:49:45;;;;;;;1999.90;999.90;;;21.90;99.90;;;;;;4882737;29;20387;-83
2021/07/24 16:52:41;;;;;;;1999.90;999.90;;;22.00;99.90;;;;;;4881698;29;20894;-83
2021/07/24 16:55:20;;;;;;;1999.90;999.90;;;22.00;99.90;;;;;;4883405;29;20922;-83
2021/07/24 16:58:07;;;;;;;1999.90;999.90;;;22.00;99.90;;;;;;4882095;29;20389;-83
2021/07/24 17:01:11;;;;;;;1999.90;999.90;;;21.90;99.90;;;;;;4881203;29;20415;-83
2021/07/24 17:03:49;;;;;;;1999.90;999.90;;;21.90;99.90;;;;;;4895878;29;20422;-83
2021/07/24 17:06:29;;;;;;;1999.90;999.90;;;21.90;99.90;;;;;;4881385;29;20434;-83
2021/07/24 17:09:15;;;;;;;1999.90;999.90;;;21.90;99.90;;;;;;4878613;29;20446;-83
2021/07/24 17:11:52;;;;;;;1999.90;999.90;;;21.90;99.90;;;;;;4881585;29;20387;-83
2021/07/24 17:14:27;;;;;;;1999.90;999.90;;;21.90;99.90;;;;;;4896793;29;20947;-83
2021/07/24 17:17:24;;;;;;;1999.90;999.90;;;22.00;99.90;;;;;;4881001;29;20529;-83
2021/07/24 17:20:12;;;;;;;1999.90;999.90;;;22.00;99.90;;;;;;4881393;29;20422;-83
2021/07/24 17:22:48;;;;;;;1999.90;999.90;;;22.10;99.90;;;;;;4880948;29;20486;-83
2021/07/24 17:25:17;;;;;;;1999.90;999.90;;;22.10;99.90;;;;;;4881352;29;20430;-83
2021/07/24 17:27:54;;;;;;;1999.90;999.90;;;22.20;99.90;;;;;;4881321;29;20396;-83
2021/07/24 17:33:29;;;;;;;1999.90;999.90;;;22.20;99.90;;;;;;4882065;29;20736;-83
2021/07/24 17:36:11;;;;;;;1999.90;999.90;;;22.20;99.90;;;;;;4899824;23;20501;-83
2021/07/24 17:38:51;;;;;;;1999.90;999.90;;;22.20;99.90;;;;;;4885184;29;20410;-83
2021/07/24 17:41:30;;;;;;;;;;;;;;;;;;;;;
2021/07/24 17:44:04;;;;;;;1999.90;999.90;;;22.20;99.90;;;;;;4884927;29;20380;-83
2021/07/24 17:46:48;;;;;;;;;;;;;;;;;;;;;
2021/07/24 17:49:23;;;;;;;1999.90;999.90;;;22.10;99.90;;;;;;4885049;29;20717;-83
2021/07/24 17:51:57;;;;;;;1999.90;999.90;;;22.20;99.90;;;;;;4899533;29;20934;-83
2021/07/24 17:54:26;;;;;;;1999.90;999.90;;;22.20;99.90;;;;;;4885699;29;20922;-83
2021/07/24 17:56:55;;;;;;;1999.90;999.90;;;22.20;99.90;;;;;;4901296;29;20824;-83
2021/07/24 17:59:55;;;;;;;1999.90;999.90;;;22.20;99.90;;;;;;4885391;29;21111;-83
2021/07/24 18:02:25;;;;;;;1999.90;999.90;;;22.20;99.90;;;;;;4885289;29;20547;-83